This is the latest recevied weather packets stored in our database for station/object N3LF. If no packets are shown the sender has not sent any weather packets the latest 10 day(s).
| Time | Temp. | Humidity | Pressure | Rain* | Wind** | Luminosity | Snow |
|---|---|---|---|---|---|---|---|
| 1777060724 | 19.44° C | 95% | 1012.4 hPa | 3.05 mm | - | 85 W/m² | - |
| 1777060419 | 20.56° C | 90% | 1012.4 hPa | 0 mm | - | 51 W/m² | - |
| 1777060115 | 21.11° C | 85% | 1012.4 hPa | 0 mm | - | 40 W/m² | - |
| 1777059812 | 23.33° C | 74% | 1012.5 hPa | 0 mm | - | 18 W/m² | - |
| 1777059508 | 23.33° C | 70% | 1012.2 hPa | 0 mm | - | 36 W/m² | - |
| 1777059206 | 23.89° C | 68% | 1012.1 hPa | 0 mm | - | 42 W/m² | - |
| 1777058905 | 23.89° C | 68% | 1012 hPa | 0 mm | - | 81 W/m² | - |
| 1777058605 | 23.89° C | 68% | 1011.9 hPa | 0 mm | - | 77 W/m² | - |
| 1777058303 | 23.89° C | 69% | 1012.2 hPa | 0 mm | - | 53 W/m² | - |
| 1777057999 | 23.89° C | 66% | 1011.9 hPa | 0 mm | - | 56 W/m² | - |
| 1777057699 | 24.44° C | 67% | 1012.1 hPa | 0 mm | - | 97 W/m² | - |
| 1777057395 | 24.44° C | 65% | 1012 hPa | 0 mm | - | 172 W/m² | - |
| 1777057090 | 24.44° C | 66% | 1012 hPa | 0 mm | - | 131 W/m² | - |
| 1777056786 | 24.44° C | 65% | 1012 hPa | 0 mm | - | 175 W/m² | - |
| 1777056481 | 25° C | 66% | 1012 hPa | 0 mm | - | 177 W/m² | - |
| 1777056176 | 25° C | 65% | 1012 hPa | 0 mm | - | 235 W/m² | - |
| 1777055872 | 25° C | 64% | 1012 hPa | 0 mm | - | 221 W/m² | - |
| 1777055569 | 25° C | 64% | 1012.1 hPa | 0 mm | - | 226 W/m² | - |
| 1777055269 | 24.44° C | 67% | 1012.1 hPa | 0 mm | - | 225 W/m² | - |
| 1777054969 | 24.44° C | 66% | 1012.1 hPa | 0 mm | - | 181 W/m² | - |
| 1777054665 | 24.44° C | 65% | 1012.3 hPa | 0 mm | - | 174 W/m² | - |
| 1777054362 | 25° C | 64% | 1012.1 hPa | 0 mm | - | 197 W/m² | - |
| 1777054061 | 24.44° C | 65% | 1012.2 hPa | 0 mm | - | 190 W/m² | - |
| 1777053761 | 24.44° C | 64% | 1012.4 hPa | 0 mm | - | 228 W/m² | - |
| 1777053460 | 24.44° C | 65% | 1012.5 hPa | 0 mm | - | 237 W/m² | - |
* Rain latest hour (hover to see other rain measurements)
** Current wind speed in m/s (hover to see current wind gust speed)